createdAt,value
2023-10-17T13:25:20.633Z,5.15
2023-10-17T13:27:47.765Z,2.55
2023-10-17T13:30:15.257Z,4.90
2023-10-17T13:32:42.731Z,3.47
2023-10-17T13:35:09.957Z,5.03
2023-10-17T13:37:52.221Z,7.43
2023-10-17T13:40:24.197Z,5.90
2023-10-17T13:42:54.604Z,12.60
2023-10-17T13:45:23.297Z,8.25
2023-10-17T13:47:58.957Z,6.97
2023-10-17T13:50:27.334Z,5.78
2023-10-17T13:52:55.220Z,2.55
2023-10-17T13:55:26.852Z,8.30
2023-10-17T13:57:56.745Z,3.88
2023-10-17T14:00:25.138Z,7.55
2023-10-17T14:02:51.993Z,2.60
2023-10-17T14:05:21.201Z,9.90
2023-10-17T14:07:49.983Z,6.20
2023-10-17T14:10:17.497Z,3.58
2023-10-17T14:12:47.522Z,7.95
2023-10-17T14:15:15.337Z,2.55
2023-10-17T14:17:46.691Z,7.38
2023-10-17T14:20:29.379Z,4.22
2023-10-17T14:23:14.260Z,6.32
2023-10-17T14:26:01.413Z,3.45
2023-10-17T14:28:28.093Z,3.10
2023-10-17T14:30:55.428Z,3.58
2023-10-17T14:33:23.033Z,3.55
2023-10-17T14:35:50.739Z,5.18
2023-10-17T14:38:18.150Z,1.73
2023-10-17T14:40:45.378Z,4.78
2023-10-17T14:43:16.221Z,3.33
2023-10-17T14:45:43.446Z,3.53
2023-10-17T14:48:12.850Z,2.22
2023-10-17T14:50:40.444Z,1.95
2023-10-17T14:53:08.030Z,5.85
2023-10-17T14:55:35.190Z,10.07
2023-10-17T14:58:03.514Z,6.57
2023-10-17T15:00:30.328Z,4.45
2023-10-17T15:03:00.682Z,7.50
2023-10-17T15:05:27.472Z,3.05
2023-10-17T15:07:55.948Z,3.60
2023-10-17T15:10:24.113Z,3.47
2023-10-17T15:12:54.064Z,5.38
2023-10-17T15:15:20.978Z,4.47
2023-10-17T15:17:51.547Z,4.28
2023-10-17T15:20:18.459Z,3.00
2023-10-17T15:22:46.109Z,25.00
2023-10-17T15:25:14.243Z,34.05
2023-10-17T15:27:45.257Z,23.50
2023-10-17T15:30:30.298Z,26.42
2023-10-17T15:33:04.285Z,38.67
2023-10-17T15:35:32.154Z,28.73
2023-10-17T15:37:59.365Z,54.88
2023-10-17T15:40:27.154Z,21.27
2023-10-17T15:42:54.267Z,13.32
2023-10-17T15:45:22.098Z,9.25
2023-10-17T15:47:52.744Z,7.45
2023-10-17T15:50:20.524Z,11.75
2023-10-17T15:52:51.059Z,7.03
2023-10-17T15:55:19.311Z,9.00
2023-10-17T15:57:46.529Z,12.00
2023-10-17T16:00:17.542Z,9.00
2023-10-17T16:02:47.307Z,7.72
2023-10-17T16:05:15.501Z,8.45
2023-10-17T16:07:43.561Z,6.05
2023-10-17T16:10:14.617Z,6.35
2023-10-17T16:12:42.393Z,8.90
2023-10-17T16:15:10.920Z,6.53
2023-10-17T16:17:38.832Z,6.60
2023-10-17T16:20:18.924Z,7.20
2023-10-17T16:22:45.682Z,7.60
2023-10-17T16:25:14.869Z,7.10
2023-10-17T16:27:41.826Z,8.93
2023-10-17T16:30:14.377Z,8.38
2023-10-17T16:32:41.279Z,8.45
2023-10-17T16:35:08.894Z,8.30
2023-10-17T16:37:37.922Z,11.02
2023-10-17T16:40:06.130Z,10.90
2023-10-17T16:42:33.444Z,7.93
2023-10-17T16:45:01.009Z,8.63
2023-10-17T16:47:27.873Z,8.88
2023-10-17T16:49:57.325Z,9.75
2023-10-17T16:52:24.501Z,8.63
2023-10-17T16:54:51.860Z,12.20
2023-10-17T16:57:18.572Z,8.32
2023-10-17T16:59:47.655Z,9.65
2023-10-17T17:02:15.263Z,9.65
2023-10-17T17:04:42.421Z,15.60
2023-10-17T17:07:11.095Z,15.45
2023-10-17T17:09:38.020Z,10.68
2023-10-17T17:12:06.690Z,10.27
2023-10-17T17:14:33.531Z,6.25
2023-10-17T17:17:00.940Z,10.55
2023-10-17T17:19:29.775Z,9.48
2023-10-17T17:21:57.981Z,9.93
2023-10-17T17:24:24.743Z,9.57
2023-10-17T17:26:57.669Z,6.55
2023-10-17T17:29:25.708Z,7.60
2023-10-17T17:31:52.930Z,10.40
2023-10-17T17:34:22.704Z,7.18
2023-10-17T17:36:51.802Z,7.13
2023-10-17T17:39:25.657Z,7.75
2023-10-17T17:41:53.292Z,9.07
2023-10-17T17:44:20.128Z,8.38
2023-10-17T17:46:48.615Z,7.63
2023-10-17T17:49:15.894Z,10.73
2023-10-17T17:51:43.282Z,8.38
2023-10-17T17:54:10.259Z,14.55
2023-10-17T17:56:39.185Z,16.05
2023-10-17T17:59:05.928Z,7.88
2023-10-17T18:01:34.053Z,8.68
2023-10-17T18:04:19.051Z,7.57
2023-10-17T18:06:50.221Z,6.53
2023-10-17T18:09:19.746Z,12.90
2023-10-17T18:11:47.876Z,7.50
2023-10-17T18:14:16.101Z,8.57
2023-10-17T18:16:43.429Z,9.98
2023-10-17T18:19:10.397Z,8.05
2023-10-17T18:21:38.150Z,8.15
2023-10-17T18:24:07.125Z,10.93
2023-10-17T18:26:37.077Z,12.15
2023-10-17T18:29:05.415Z,10.57
2023-10-17T18:31:33.001Z,9.13
2023-10-17T18:33:59.803Z,15.23
2023-10-17T18:36:29.414Z,10.65
2023-10-17T18:39:03.183Z,8.32
2023-10-17T18:41:41.889Z,8.93
2023-10-17T18:44:09.951Z,10.02
2023-10-17T18:46:37.821Z,9.85
2023-10-17T18:49:04.928Z,8.48
2023-10-17T18:51:34.684Z,14.63
2023-10-17T18:54:02.636Z,8.30
2023-10-17T18:56:30.179Z,11.38
2023-10-17T18:58:57.724Z,9.02
2023-10-17T19:01:25.055Z,9.68
2023-10-17T19:03:54.852Z,8.55
2023-10-17T19:06:22.046Z,13.45
2023-10-17T19:08:49.502Z,14.05
2023-10-17T19:11:16.288Z,11.48
2023-10-17T19:13:43.640Z,15.95
2023-10-17T19:16:11.878Z,9.77
2023-10-17T19:18:41.919Z,10.35
2023-10-17T19:21:12.392Z,8.32
2023-10-17T19:23:42.655Z,13.82
2023-10-17T19:26:12.681Z,11.27
2023-10-17T19:28:41.686Z,14.73
2023-10-17T19:31:09.875Z,12.07
2023-10-17T19:33:37.639Z,14.80
2023-10-17T19:36:05.419Z,8.70
2023-10-17T19:38:32.770Z,10.07
2023-10-17T19:40:59.695Z,8.68
2023-10-17T19:43:27.512Z,12.35
2023-10-17T19:45:57.305Z,10.73
2023-10-17T19:48:25.005Z,15.48
2023-10-17T19:50:52.573Z,15.13
2023-10-17T19:53:20.016Z,14.02
2023-10-17T19:55:47.327Z,14.95
2023-10-17T19:58:15.705Z,10.13
2023-10-17T20:00:42.693Z,11.38
2023-10-17T20:03:13.395Z,20.25
2023-10-17T20:05:44.504Z,12.85
2023-10-17T20:08:12.688Z,16.65
2023-10-17T20:10:39.794Z,12.95
2023-10-17T20:13:07.583Z,12.63
2023-10-17T20:15:36.576Z,11.48
2023-10-17T20:18:06.278Z,12.52
2023-10-17T20:20:33.371Z,12.52
2023-10-17T20:23:01.039Z,10.15
2023-10-17T20:25:27.947Z,9.85
2023-10-17T20:27:55.602Z,15.55
2023-10-17T20:30:24.745Z,7.75
2023-10-17T20:32:53.258Z,16.80
2023-10-17T20:35:20.501Z,12.88
2023-10-17T20:37:47.731Z,10.48
2023-10-17T20:40:21.957Z,21.10
2023-10-17T20:42:49.744Z,10.80
2023-10-17T20:45:17.903Z,11.25
2023-10-17T20:47:44.924Z,13.32
2023-10-17T20:50:12.250Z,14.18
2023-10-17T20:52:39.077Z,13.48
2023-10-17T20:55:07.303Z,14.45
2023-10-17T20:57:34.678Z,8.68
2023-10-17T21:00:03.433Z,10.30
2023-10-17T21:02:31.135Z,15.45
2023-10-17T21:04:58.629Z,12.85
2023-10-17T21:07:25.327Z,11.30
2023-10-17T21:09:52.972Z,16.77
2023-10-17T21:12:19.732Z,12.52
2023-10-17T21:14:51.052Z,14.85
2023-10-17T21:17:18.448Z,13.25
2023-10-17T21:19:45.748Z,9.13
2023-10-17T21:22:12.679Z,12.45
2023-10-17T21:24:40.067Z,10.48
2023-10-17T21:27:06.853Z,10.15
2023-10-17T21:29:34.373Z,13.98
2023-10-17T21:32:01.174Z,11.27
2023-10-17T21:34:29.512Z,12.40
2023-10-17T21:36:56.643Z,11.65
2023-10-17T21:39:24.776Z,12.20
2023-10-17T21:41:51.426Z,10.15
2023-10-17T21:44:18.827Z,9.80
2023-10-17T21:46:45.844Z,10.85
2023-10-17T21:49:13.617Z,13.60
2023-10-17T21:51:41.576Z,10.57
2023-10-17T21:54:17.749Z,12.32
2023-10-17T21:56:52.380Z,10.98
2023-10-17T21:59:23.262Z,11.63
2023-10-17T22:01:55.974Z,15.52
2023-10-17T22:04:23.412Z,10.27
2023-10-17T22:06:50.865Z,11.10
2023-10-17T22:09:20.572Z,8.77
2023-10-17T22:11:48.201Z,10.07
2023-10-17T22:14:14.963Z,12.05
2023-10-17T22:16:42.745Z,11.82
2023-10-17T22:19:09.682Z,13.02
2023-10-17T22:21:37.186Z,14.60
2023-10-17T22:24:06.164Z,11.75
2023-10-17T22:27:00.170Z,12.88
2023-10-17T22:29:29.168Z,12.38
2023-10-17T22:32:41.243Z,12.57
2023-10-17T22:35:19.515Z,11.23
2023-10-17T22:37:46.540Z,15.02
2023-10-17T22:40:14.600Z,11.98
2023-10-17T22:42:50.078Z,17.10
2023-10-17T22:45:18.738Z,13.07
2023-10-17T22:47:46.732Z,13.40
2023-10-17T22:50:14.590Z,12.90
2023-10-17T22:55:40.900Z,14.63
2023-10-17T22:58:08.358Z,11.63
2023-10-17T23:00:38.214Z,19.58
2023-10-17T23:03:06.521Z,11.77
2023-10-17T23:05:34.672Z,24.35
2023-10-17T23:08:01.946Z,13.20
2023-10-17T23:10:29.878Z,18.42
2023-10-17T23:13:01.026Z,19.13
2023-10-17T23:15:27.943Z,11.60
2023-10-17T23:17:56.125Z,8.85
2023-10-17T23:20:24.276Z,13.75
2023-10-17T23:23:01.958Z,14.88
2023-10-17T23:25:33.607Z,13.57
2023-10-17T23:28:01.159Z,12.25
2023-10-17T23:30:27.944Z,18.60
2023-10-17T23:32:56.748Z,12.55
2023-10-17T23:35:23.431Z,13.60
2023-10-17T23:37:51.878Z,17.05
2023-10-17T23:40:19.127Z,14.77
2023-10-17T23:42:48.043Z,19.35
2023-10-17T23:45:19.136Z,14.65
2023-10-17T23:47:48.327Z,15.73
2023-10-17T23:50:19.980Z,13.57
2023-10-17T23:52:48.272Z,12.90
2023-10-17T23:55:15.352Z,18.23
2023-10-17T23:57:48.526Z,16.20
